Terminal Aerodrome Forecast
Issued by NWS Charleston, SC

Home | Current Version | Previous Version | Text Only | Print | Product List | Glossary On
Versions: 1 2 3 4 5 6 7 8 9 10 11 12 13 14 15 16 17 18 19 20 21
000
FTUS42 KCHS 232100 AAD
TAFCHS
TAF AMD
KCHS 232158Z 2322/2418 02010G18KT P6SM -RA OVC008
     FM232200 02010G18KT P6SM SCT008 OVC010
     FM240200 02015G22KT P6SM VCSH SCT015 BKN050
     FM241300 02014KT P6SM SCT015 BKN025=

USA.gov is the U.S. government's official web portal to all federal, state and local government web resources and services.